Latest Weather Observations for Flinders Island Airport

IDT60801

Issued at 8:01 am EDT Tuesday 23 December 2014 (issued every 30 minutes, with the page automatically refreshed every 10 minutes)

About weather observations | Map of weather stations | Latest weather observations for TAS | Other Formats
Station Details ID: 099005 Name: FLINDERS ISLAND AIRPORT Lat: -40.09 Lon: 148.00 Height: 9.0 m
Data from the previous 72 hours. | See also: Recent months at Flinders Island Airport
Date/Time
EDT
Temp
°C
App
Temp
°C
Dew
Point
Rel
Hum
%
Delta-T
°C
Wind Press
QNH
hPa
Press
MSL
hPa
Rain
since 9 am
mm
Dir
 
Spd
km/h
Gust
km/h
Spd
kts
Gust
kts
23/08:00am 19.5 17.3 16.9 85 1.6 NNE 24 30 13 16 1007.9 1007.9 0.2
23/07:30am 20.6 19.1 16.4 77 2.5 NNE 19 24 10 13 1007.4 1007.4 0.0
23/07:00am 22.4 20.3 15.3 64 4.2 N 20 32 11 17 1007.3 1007.3 0.0
23/06:30am 22.2 21.5 15.3 65 4.1 NW 13 19 7 10 1007.3 1007.3 0.0
23/05:30am 21.3 19.0 16.7 75 2.8 NNW 24 33 13 18 1007.0 1007.0 0.0
23/05:14am 21.7 20.1 16.6 73 3.1 NNW 20 32 11 17 1006.8 1006.8 0.0
23/05:00am 20.6 20.8 16.8 79 2.3 N 11 20 6 11 1006.6 1006.6 0.0
23/04:30am 20.8 18.1 16.6 77 2.5 NNE 26 32 14 17 1006.3 1006.3 0.0
23/04:00am 20.7 18.0 16.5 77 2.5 NNE 26 33 14 18 1005.8 1005.8 0.0
23/03:30am 20.5 18.7 16.9 80 2.2 NE 22 32 12 17 1005.8 1005.8 0.0
23/03:00am 20.2 18.7 16.8 81 2.1 ENE 20 28 11 15 1006.3 1006.3 0.0
23/02:30am 21.0 20.0 16.6 76 2.7 NNE 17 26 9 14 1006.8 1006.8 0.0
23/02:00am 20.9 18.6 16.7 77 2.6 NNE 24 37 13 20 1007.1 1007.1 0.0
23/01:30am 20.8 19.5 17.2 80 2.2 NE 20 30 11 16 1006.8 1006.8 0.0
23/01:00am 20.6 19.4 17.6 83 1.8 ENE 20 33 11 18 1007.4 1007.4 0.0
23/12:30am 20.9 20.7 17.7 82 2.0 E 15 24 8 13 1007.6 1007.6 0.0
23/12:00am 20.5 21.3 18.1 86 1.5 ESE 11 17 6 9 1007.3 1007.2 0.0
 
Date/Time
EDT
Temp
°C
App
Temp
°C
Dew
Point
Rel
Hum
%
Delta-T
°C
Wind Press
QNH
hPa
Press
MSL
hPa
Rain
since 9 am
mm
Dir
 
Spd
km/h
Gust
km/h
Spd
kts
Gust
kts
22/11:30pm 20.3 19.0 18.2 88 1.3 ENE 22 33 12 18 1007.5 1007.5 0.0
22/11:00pm 20.1 17.3 18.2 89 1.2 ENE 30 41 16 22 1008.3 1008.3 0.0
22/10:30pm 20.1 17.0 18.4 90 1.1 ENE 32 48 17 26 1008.7 1008.7 0.0
22/10:05pm 20.1 16.7 18.2 89 1.2 ENE 33 52 18 28 1008.8 1008.8 0.0
22/10:00pm 20.1 15.6 18.2 89 1.2 E 39 52 21 28 1008.8 1008.8 0.0
22/09:35pm 20.0 15.4 18.1 89 1.2 E 39 54 21 29 1009.2 1009.2 0.0
22/09:30pm 20.0 15.8 18.1 89 1.2 E 37 56 20 30 1009.1 1009.1 0.0
22/09:24pm 19.9 15.7 18.0 89 1.2 E 37 56 20 30 1009.2 1009.2 0.0
22/09:00pm 19.8 15.9 17.9 89 1.2 E 35 48 19 26 1009.6 1009.6 0.0
22/08:37pm 19.7 16.4 18.0 90 1.0 E 32 50 17 27 1010.1 1010.1 0.0
22/08:30pm 19.8 16.9 17.9 89 1.2 E 30 41 16 22 1010.2 1010.2 0.0
22/08:00pm 19.9 16.6 17.9 88 1.2 E 32 46 17 25 1010.6 1010.6 0.0
22/07:40pm 20.1 17.1 17.7 86 1.5 E 30 48 16 26 1010.7 1010.7 0.0
22/07:30pm 20.1 17.4 17.5 85 1.6 E 28 39 15 21 1010.8 1010.8 0.0
22/07:00pm 20.3 18.5 16.9 81 2.1 E 22 33 12 18 1010.9 1010.9 0.0
22/06:32pm 20.2 17.2 16.8 81 2.1 E 28 41 15 22 1011.4 1011.4 0.0
22/06:30pm 20.1 17.1 16.7 81 2.1 E 28 41 15 22 1011.4 1011.4 0.0
22/06:00pm 21.5 17.5 16.7 74 2.9 E 33 44 18 24 1011.5 1011.5 0.0
22/05:30pm 22.8 20.3 16.1 66 4.1 ESE 24 37 13 20 1011.4 1011.4 0.0
22/05:00pm 23.5 21.3 14.8 58 5.2 ESE 20 33 11 18 1011.8 1011.8 0.0
22/04:30pm 23.7 20.7 13.6 53 5.9 E 22 33 12 18 1012.0 1012.0 0.0
22/04:00pm 23.3 20.8 13.5 54 5.7 E 19 26 10 14 1012.3 1012.3 0.0
22/03:30pm 23.4 21.3 13.6 54 5.7 ESE 17 28 9 15 1012.9 1012.9 0.0
22/03:00pm 23.0 21.3 14.8 60 4.9 ESE 17 26 9 14 1013.2 1013.2 0.0
22/02:30pm 23.5 21.6 15.3 60 4.9 E 19 26 10 14 1013.2 1013.2 0.0
22/02:00pm 22.9 20.0 15.2 62 4.6 E 24 33 13 18 1013.5 1013.5 0.0
22/01:30pm 22.6 20.4 15.0 62 4.5 E 20 28 11 15 1013.9 1013.9 0.0
22/01:00pm 24.2 21.2 14.9 56 5.5 E 24 35 13 19 1013.8 1013.8 0.0
22/12:30pm 24.0 21.6 15.5 59 5.1 E 22 33 12 18 1014.1 1014.1 0.0
22/12:00pm 24.0 21.3 15.5 59 5.1 E 24 32 13 17 1014.4 1014.4 0.0
22/11:30am 23.1 20.3 15.4 62 4.6 E 24 33 13 18 1014.4 1014.4 0.0
22/11:00am 23.1 20.9 15.9 64 4.3 E 22 33 12 18 1014.6 1014.6 0.0
22/10:30am 22.3 20.5 15.9 67 3.9 E 20 33 11 18 1014.7 1014.7 0.0
22/10:00am 22.2 20.1 15.3 65 4.1 ESE 20 32 11 17 1014.7 1014.7 0.0
22/09:30am 21.4 19.5 15.3 68 3.6 E 19 28 10 15 1014.8 1014.8 0.0
22/09:00am 21.0 19.1 15.1 69 3.5 E 19 30 10 16 1014.9 1014.9 0.0
22/08:30am 19.9 18.0 14.3 70 3.2 E 17 26 9 14 1014.6 1014.6 0.0
22/08:00am 19.6 18.3 14.8 74 2.8 E 15 19 8 10 1014.2 1014.2 0.0
22/07:30am 17.2 16.9 15.4 89 1.1 E 11 15 6 8 1014.2 1014.2 0.0
22/07:00am 14.6 14.3 14.3 98 0.2 NE 9 11 5 6 1014.1 1014.1 0.0
22/06:30am 12.0 10.8 11.7 98 0.2 E 9 11 5 6 1014.1 1014.1 0.0
22/06:00am 9.9 8.1 9.6 98 0.1 NE 9 11 5 6 1014.0 1014.0 0.0
22/05:30am 11.7 10.8 11.4 98 0.2 NNE 7 9 4 5 1013.9 1013.9 0.0
22/05:00am 11.8 10.2 11.6 99 0.1 NE 11 13 6 7 1013.5 1013.5 0.0
22/04:33am 11.4 10.1 11.1 98 0.2 NE 9 9 5 5 1013.5 1013.5 0.0
22/04:30am 11.2 9.8 10.9 98 0.2 NE 9 9 5 5 1013.5 1013.5 0.0
22/04:29am 11.1 9.7 10.8 98 0.2 NE 9 9 5 5 1013.5 1013.5 0.0
22/04:00am 12.6 11.2 12.3 98 0.2 ENE 11 11 6 6 1013.6 1013.6 0.0
22/03:30am 12.1 10.9 11.6 97 0.3 NE 9 11 5 6 1013.7 1013.7 0.0
22/03:27am 12.1 10.9 11.6 97 0.3 NNE 9 11 5 6 1013.7 1013.7 0.0
22/03:22am 12.9 11.6 12.4 97 0.3 NE 11 13 6 7 1013.7 1013.7 0.0
22/03:10am 13.0 12.1 12.5 97 0.3 NE 9 11 5 6 1013.9 1013.9 0.0
22/03:00am 12.7 11.7 12.2 97 0.3 NE 9 11 5 6 1013.9 1013.9 0.0
22/02:32am 11.9 10.3 11.4 97 0.3 ENE 11 13 6 7 1014.1 1014.1 0.0
22/02:30am 11.9 10.2 11.3 96 0.3 ENE 11 13 6 7 1014.1 1014.1 0.0
22/02:00am 11.4 10.0 10.8 96 0.3 NE 9 11 5 6 1014.2 1014.2 0.0
22/01:30am 11.4 9.5 10.6 95 0.4 ENE 11 13 6 7 1014.4 1014.4 0.0
22/01:00am 13.2 12.7 12.6 96 0.3 NE 7 9 4 5 1014.8 1014.8 0.0
22/12:47am 14.0 13.4 13.4 96 0.3 NE 9 11 5 6 1014.8 1014.8 0.0
22/12:30am 13.4 12.9 12.8 96 0.3 NE 7 9 4 5 1014.7 1014.7 0.0
22/12:14am 12.7 11.6 11.9 95 0.4 NE 9 9 5 5 1014.8 1014.8 0.0
22/12:00am 12.3 11.4 11.4 94 0.5 ENE 7 9 4 5 1014.8 1014.8 0.0
 
Date/Time
EDT
Temp
°C
App
Temp
°C
Dew
Point
Rel
Hum
%
Delta-T
°C
Wind Press
QNH
hPa
Press
MSL
hPa
Rain
since 9 am
mm
Dir
 
Spd
km/h
Gust
km/h
Spd
kts
Gust
kts
21/11:30pm 13.7 12.9 12.8 94 0.5 NE 9 9 5 5 1014.7 1014.7 0.0
21/11:00pm 12.8 11.6 11.7 93 0.6 NNE 9 9 5 5 1014.7 1014.7 0.0
21/10:30pm 13.2 12.7 11.9 92 0.7 N 6 7 3 4 1014.5 1014.5 0.0
21/10:00pm 13.8 13.2 12.4 91 0.8 WNW 7 9 4 5 1014.4 1014.4 0.0
21/09:30pm 15.6 16.0 13.6 88 1.1 WNW 4 11 2 6 1014.1 1014.1 0.0
21/09:00pm 16.9 17.1 14.7 87 1.3 WNW 7 9 4 5 1013.7 1013.7 0.0
21/08:30pm 17.8 19.1 15.1 84 1.6 - 2 7 1 4 1013.6 1013.6 0.0
21/08:00pm 18.2 16.1 15.1 82 1.8 WSW 20 28 11 15 1013.6 1013.6 0.0
21/07:30pm 18.9 16.8 15.2 79 2.2 WSW 20 24 11 13 1013.2 1013.2 0.0
21/07:00pm 20.1 18.5 14.9 72 3.0 W 17 20 9 11 1013.0 1013.0 0.0
21/06:30pm 22.2 19.8 14.3 61 4.6 W 20 26 11 14 1012.7 1012.7 0.0
21/06:00pm 22.3 20.9 14.4 61 4.6 NNW 15 22 8 12 1012.4 1012.4 0.0
21/05:30pm 22.6 20.0 13.7 57 5.2 W 20 28 11 15 1012.4 1012.4 0.0
21/05:00pm 21.1 17.6 14.5 66 3.9 WNW 26 32 14 17 1012.9 1012.9 0.0
21/04:30pm 21.3 17.9 14.7 66 3.9 W 26 30 14 16 1013.0 1013.0 0.0
21/04:00pm 20.9 17.4 14.5 67 3.7 WNW 26 32 14 17 1013.6 1013.6 0.0
21/03:30pm 20.0 15.3 14.4 70 3.3 WNW 32 39 17 21 1014.2 1014.2 0.0
21/03:00pm 20.0 15.5 13.7 67 3.6 W 30 35 16 19 1014.2 1014.2 0.0
21/02:30pm 19.4 14.4 13.3 68 3.5 WNW 32 37 17 20 1014.6 1014.6 0.0
21/02:00pm 18.9 14.2 13.3 70 3.2 W 30 37 16 20 1015.1 1015.1 0.0
21/01:30pm 20.0 16.5 13.5 66 3.7 W 24 28 13 15 1015.0 1015.0 0.0
21/01:00pm 20.4 16.3 13.8 66 3.8 W 28 32 15 17 1015.4 1015.4 0.0
21/12:30pm 19.2 15.6 12.9 67 3.6 WSW 24 30 13 16 1015.3 1015.3 0.0
21/12:00pm 19.2 15.9 12.7 66 3.6 WSW 22 28 12 15 1015.3 1015.3 0.0
21/11:30am 18.8 15.7 12.3 66 3.6 W 20 26 11 14 1015.5 1015.5 0.0
21/11:00am 18.7 15.7 12.7 68 3.4 W 20 24 11 13 1015.7 1015.7 0.0
21/10:30am 19.1 16.3 13.1 68 3.4 W 20 24 11 13 1015.7 1015.7 0.0
21/10:00am 18.6 15.6 12.6 68 3.3 W 20 24 11 13 1015.6 1015.6 0.0
21/09:30am 18.3 16.0 13.0 71 3.0 W 17 19 9 10 1015.6 1015.6 0.0
21/09:00am 17.7 15.6 12.4 71 2.9 W 15 17 8 9 1015.6 1015.6 0.0
21/08:38am 17.5 15.8 12.6 73 2.7 W 13 19 7 10 1015.6 1015.6 0.0
21/08:30am 17.1 15.6 12.0 72 2.8 W 11 17 6 9 1015.7 1015.7 0.0
21/08:00am 16.7 15.1 12.8 78 2.2 W 13 17 7 9 1015.6 1015.6 0.0
21/07:30am 16.0 14.0 12.7 81 1.8 W 15 19 8 10 1015.7 1015.7 0.0
21/07:00am 15.9 14.0 13.0 83 1.6 W 15 19 8 10 1015.9 1015.9 0.0
21/06:32am 13.1 12.7 12.3 95 0.4 NNW 6 9 3 5 1015.5 1015.5 0.0
21/06:30am 13.0 12.4 12.2 95 0.4 NNW 7 9 4 5 1015.5 1015.5 0.0
21/06:00am 11.1 9.9 10.3 95 0.4 NNW 7 9 4 5 1015.1 1015.1 0.0
21/05:57am 11.2 10.0 10.4 95 0.4 N 7 9 4 5 1015.0 1015.0 0.0
21/05:30am 10.3 9.4 9.4 94 0.4 NNW 4 9 2 5 1014.8 1014.8 0.0
21/05:00am 11.4 10.3 10.1 92 0.7 NW 6 7 3 4 1014.5 1014.5 0.0
21/04:35am 12.1 10.6 10.7 91 0.7 NW 9 9 5 5 1014.4 1014.4 0.0
21/04:30am 12.3 10.9 10.9 91 0.7 NW 9 11 5 6 1014.4 1014.4 0.0
21/04:00am 13.1 11.5 11.5 90 0.8 WNW 11 13 6 7 1014.4 1014.4 0.0
21/03:50am 13.4 11.9 11.8 90 0.9 WNW 11 15 6 8 1014.5 1014.5 0.0
21/03:35am 13.7 12.2 11.9 89 1.0 WNW 11 15 6 8 1014.5 1014.5 0.0
21/03:30am 13.7 11.8 11.9 89 1.0 WNW 13 19 7 10 1014.6 1014.6 0.0
21/03:00am 14.1 11.9 12.1 88 1.1 W 15 20 8 11 1014.8 1014.8 0.0
21/02:35am 14.8 11.7 12.3 85 1.4 W 20 26 11 14 1015.0 1015.0 0.0
21/02:30am 14.9 11.9 12.4 85 1.4 W 20 26 11 14 1015.1 1015.1 0.0
21/02:06am 15.2 12.2 12.7 85 1.4 W 20 28 11 15 1015.3 1015.3 0.0
21/02:00am 15.0 12.2 12.5 85 1.4 W 19 26 10 14 1015.3 1015.3 0.0
21/01:30am 15.3 11.5 12.4 83 1.6 W 24 28 13 15 1015.4 1015.4 0.0
21/01:00am 15.5 11.8 12.6 83 1.6 W 24 30 13 16 1015.6 1015.6 0.0
21/12:30am 15.8 12.4 12.5 81 1.8 WSW 22 28 12 15 1015.9 1015.9 0.0
21/12:20am 16.0 12.3 12.7 81 1.8 WSW 24 28 13 15 1016.0 1016.0 0.0
21/12:00am 16.2 12.8 12.6 79 2.0 WSW 22 28 12 15 1016.3 1016.3 0.0
 
Date/Time
EDT
Temp
°C
App
Temp
°C
Dew
Point
Rel
Hum
%
Delta-T
°C
Wind Press
QNH
hPa
Press
MSL
hPa
Rain
since 9 am
mm
Dir
 
Spd
km/h
Gust
km/h
Spd
kts
Gust
kts
20/11:30pm 16.1 12.3 12.5 79 2.0 WSW 24 28 13 15 1016.4 1016.4 0.0
20/11:00pm 16.4 13.0 12.6 78 2.1 WSW 22 28 12 15 1016.3 1016.3 0.0
20/10:43pm 16.4 12.6 12.4 77 2.2 WSW 24 28 13 15 1016.3 1016.3 0.0
20/10:30pm 16.1 12.7 12.5 79 2.0 WSW 22 30 12 16 1016.3 1016.3 0.0
20/10:00pm 16.0 12.9 12.2 78 2.1 W 20 28 11 15 1016.0 1016.0 0.0
20/09:30pm 16.0 12.1 12.2 78 2.1 W 24 33 13 18 1015.8 1015.8 0.0
20/09:00pm 16.2 10.8 12.2 77 2.2 W 32 37 17 20 1015.4 1015.4 0.0
20/08:30pm 16.4 10.9 12.4 77 2.2 W 33 44 18 24 1015.2 1015.2 0.0
20/08:00pm 16.8 11.3 12.3 75 2.5 W 33 46 18 25 1014.9 1014.9 0.0
20/07:30pm 17.3 11.7 12.2 72 2.8 W 33 43 18 23 1014.7 1014.7 0.0
20/07:00pm 17.6 11.8 12.7 73 2.7 W 35 44 19 24 1014.4 1014.4 0.0
20/06:30pm 18.1 11.6 13.0 72 2.9 W 39 50 21 27 1014.0 1014.0 0.0
20/06:00pm 18.9 12.4 12.9 68 3.4 W 39 50 21 27 1014.0 1014.0 0.0
20/05:30pm 18.4 12.2 12.8 70 3.1 W 37 46 20 25 1014.0 1014.0 0.0
20/05:00pm 19.2 12.8 13.2 68 3.4 W 39 46 21 25 1014.2 1014.2 0.0
20/04:30pm 18.8 12.4 13.2 70 3.2 WNW 39 48 21 26 1014.3 1014.3 0.0
20/04:00pm 18.9 12.5 13.3 70 3.2 WNW 39 48 21 26 1014.5 1014.5 0.0
20/03:56pm 19.0 13.1 13.6 71 3.1 WNW 37 48 20 26 1014.5 1014.5 0.0
20/03:30pm 18.6 12.7 13.5 72 2.9 W 37 52 20 28 1014.8 1014.8 0.0
20/03:00pm 18.5 12.4 13.1 71 3.0 W 37 46 20 25 1014.9 1014.9 0.0
20/02:30pm 18.3 12.3 13.4 73 2.8 W 37 44 20 24 1015.1 1015.1 0.0
20/02:00pm 18.8 13.4 13.9 73 2.8 W 35 48 19 26 1014.9 1014.9 0.0
20/01:30pm 17.9 11.5 13.2 74 2.6 W 39 50 21 27 1015.1 1015.1 0.0
20/01:00pm 17.6 11.1 12.9 74 2.6 W 39 52 21 28 1015.4 1015.4 0.0
20/12:30pm 17.7 11.1 12.6 72 2.8 W 39 50 21 27 1015.4 1015.4 0.0
20/12:00pm 17.4 11.3 12.9 75 2.5 W 37 48 20 26 1015.5 1015.5 0.0
20/11:30am 17.9 11.6 12.4 70 3.1 W 37 46 20 25 1015.4 1015.4 0.0
20/11:29am 17.7 11.8 12.4 71 2.9 W 35 46 19 25 1015.4 1015.4 0.0
20/11:14am 18.3 12.5 12.7 70 3.1 W 35 46 19 25 1015.3 1015.3 0.0
20/11:00am 17.9 12.0 12.4 70 3.0 W 35 46 19 25 1015.4 1015.4 0.0
20/10:44am 17.5 10.7 12.0 70 3.0 W 39 46 21 25 1015.3 1015.3 0.0
20/10:30am 18.2 11.9 12.4 69 3.2 W 37 48 20 26 1015.3 1015.3 0.0
20/10:26am 18.4 12.1 12.4 68 3.3 W 37 48 20 26 1015.3 1015.3 0.0
20/10:00am 16.6 11.7 12.6 77 2.2 W 30 39 16 21 1015.6 1015.6 0.0
20/09:36am 16.2 9.4 11.8 75 2.4 W 39 50 21 27 1015.5 1015.5 0.0
20/09:30am 16.3 9.8 11.7 74 2.5 W 37 46 20 25 1015.4 1015.4 0.0
20/09:00am 16.2 10.1 11.6 74 2.5 W 35 44 19 24 1015.6 1015.6 0.0
20/08:30am 16.2 10.5 11.8 75 2.4 W 33 48 18 26 1015.4 1015.4 0.0

Other Formats:

Comma delimited format used in spreadsheet applications
http://www.bom.gov.au/fwo/IDT60801/IDT60801.94980.axf

JavaScript Object Notation format (JSON) in row-major order
http://www.bom.gov.au/fwo/IDT60801/IDT60801.94980.json